Time;durP1;ratioP1;P1;durP2;ratioP2;P2;SDS_P1;SDS_P2;PMS_P1;PMS_P2;Temp;Humidity;BMP_temperature;BMP_pressure;BME280_temperature;BME280_humidity;BME280_pressure;Samples;Min_cycle;Max_cycle;Signal;HPM_P1;HPM_P2
2023/04/19 00:00:35;;;;;;;15.50;12.07;;;11.70;1.00;;;;;;5035305;28;20854;-78
2023/04/19 00:03:02;;;;;;;16.30;13.07;;;11.70;1.00;;;;;;5051342;28;20873;-78
2023/04/19 00:05:29;;;;;;;13.67;11.73;;;11.70;1.00;;;;;;5056065;28;20448;-79
2023/04/19 00:07:56;;;;;;;13.30;11.43;;;11.70;3.30;;;;;;5039844;28;20473;-79
2023/04/19 00:10:23;;;;;;;14.43;12.87;;;11.60;32.20;;;;;;5034439;28;20496;-79
2023/04/19 00:12:49;;;;;;;15.47;11.80;;;11.70;99.90;;;;;;5054113;28;20509;-77
2023/04/19 00:15:18;;;;;;;12.70;11.37;;;11.70;88.70;;;;;;5054553;28;20466;-79
2023/04/19 00:17:45;;;;;;;16.57;13.17;;;11.70;98.90;;;;;;5036095;28;20648;-78
2023/04/19 00:20:12;;;;;;;12.87;11.33;;;11.80;66.60;;;;;;5033227;28;20460;-77
2023/04/19 00:22:38;;;;;;;16.23;12.03;;;11.70;99.90;;;;;;5033574;28;20951;-77
2023/04/19 00:25:06;;;;;;;12.67;10.93;;;11.70;99.90;;;;;;5045320;28;20557;-77
2023/04/19 00:27:32;;;;;;;14.50;11.90;;;11.80;39.40;;;;;;5054477;28;20495;-78
2023/04/19 00:29:59;;;;;;;15.77;12.07;;;11.80;1.00;;;;;;5043528;28;20460;-77
2023/04/19 00:32:27;;;;;;;29.13;11.80;;;11.80;9.20;;;;;;5032846;28;20460;-76
2023/04/19 00:34:54;;;;;;;12.67;10.87;;;11.80;1.00;;;;;;5041841;28;20888;-77
2023/04/19 00:37:21;;;;;;;15.83;11.10;;;11.90;1.00;;;;;;5053490;28;20487;-77
2023/04/19 00:39:48;;;;;;;13.50;11.80;;;11.80;1.00;;;;;;5046801;28;20510;-77
2023/04/19 00:42:15;;;;;;;17.67;12.50;;;11.90;1.00;;;;;;5014805;28;20461;-77
2023/04/19 00:44:42;;;;;;;17.60;11.63;;;11.90;1.00;;;;;;5024264;28;20481;-77
2023/04/19 00:47:09;;;;;;;16.80;11.57;;;11.90;1.00;;;;;;5053573;28;20470;-78
2023/04/19 00:49:37;;;;;;;13.80;11.97;;;11.90;1.00;;;;;;5049898;28;20540;-77
2023/04/19 00:52:05;;;;;;;12.20;9.97;;;11.90;1.00;;;;;;5031829;28;20464;-77
2023/04/19 00:54:33;;;;;;;14.43;11.73;;;12.00;1.00;;;;;;5033336;28;20482;-77
2023/04/19 00:57:00;;;;;;;15.83;12.47;;;12.00;1.00;;;;;;5033228;28;20472;-78
2023/04/19 00:59:27;;;;;;;14.10;11.60;;;12.00;99.90;;;;;;5033592;28;20455;-78
2023/04/19 01:01:54;;;;;;;18.43;12.37;;;12.00;99.90;;;;;;5017972;28;20462;-78
2023/04/19 01:04:21;;;;;;;13.03;11.30;;;11.90;1.00;;;;;;5013324;28;20452;-77
2023/04/19 01:06:51;;;;;;;15.53;11.60;;;11.90;1.00;;;;;;5013660;28;20484;-77
2023/04/19 01:09:17;;;;;;;16.70;12.00;;;12.00;1.00;;;;;;5013500;28;20446;-77
2023/04/19 01:11:44;;;;;;;12.70;10.47;;;11.90;1.00;;;;;;5032320;28;20460;-79
2023/04/19 01:14:11;;;;;;;13.67;12.17;;;11.90;1.00;;;;;;5016464;28;20495;-76
2023/04/19 01:16:38;;;;;;;13.30;11.10;;;12.00;1.00;;;;;;5031730;28;20472;-76
2023/04/19 01:19:05;;;;;;;14.10;11.60;;;12.00;1.00;;;;;;5033544;28;20449;-77
2023/04/19 01:21:32;;;;;;;13.97;11.80;;;11.90;1.00;;;;;;5032687;28;20484;-77
2023/04/19 01:24:00;;;;;;;13.63;10.57;;;12.00;1.00;;;;;;5033196;28;20451;-78
2023/04/19 01:26:27;;;;;;;18.10;11.83;;;11.90;1.00;;;;;;5046823;28;20851;-78
2023/04/19 01:28:54;;;;;;;13.80;11.50;;;11.90;1.00;;;;;;5032867;28;20453;-78
2023/04/19 01:31:21;;;;;;;12.70;10.37;;;12.00;99.90;;;;;;5048225;28;20491;-78
2023/04/19 01:33:48;;;;;;;13.73;10.90;;;12.00;72.40;;;;;;5052861;28;20575;-77
2023/04/19 01:36:15;;;;;;;15.47;13.20;;;11.90;99.90;;;;;;5038153;28;20549;-77
2023/04/19 01:38:41;;;;;;;15.80;12.80;;;11.80;99.90;;;;;;5031769;28;20519;-77
2023/04/19 01:41:09;;;;;;;15.93;11.97;;;11.80;99.90;;;;;;5039767;28;20544;-77
2023/04/19 01:43:36;;;;;;;18.10;10.87;;;11.70;48.70;;;;;;5016046;28;20464;-77
2023/04/19 01:46:03;;;;;;;14.37;11.27;;;11.70;99.90;;;;;;5031654;28;20465;-79
2023/04/19 01:48:30;;;;;;;12.53;10.60;;;11.70;99.90;;;;;;5035772;28;20459;-79
2023/04/19 01:50:57;;;;;;;12.80;11.17;;;11.60;80.90;;;;;;5041279;28;20449;-78
2023/04/19 01:53:23;;;;;;;14.10;10.73;;;11.60;55.50;;;;;;5036077;28;20495;-77
2023/04/19 01:55:50;;;;;;;12.27;10.00;;;11.50;1.00;;;;;;5051608;28;20891;-78
2023/04/19 01:58:18;;;;;;;13.63;10.23;;;11.50;1.00;;;;;;5021592;28;20842;-77
2023/04/19 02:00:45;;;;;;;13.33;10.03;;;11.60;1.00;;;;;;5032279;28;20462;-78
2023/04/19 02:03:12;;;;;;;12.30;9.80;;;11.60;1.00;;;;;;5052039;28;20487;-77
2023/04/19 02:05:39;;;;;;;12.50;9.83;;;11.60;1.00;;;;;;5051609;28;20464;-77
2023/04/19 02:08:06;;;;;;;11.93;9.40;;;11.60;99.90;;;;;;5038794;28;20841;-77
2023/04/19 02:10:33;;;;;;;11.30;9.10;;;11.60;99.90;;;;;;5044738;28;20460;-79
2023/04/19 02:12:59;;;;;;;11.63;9.50;;;11.60;99.90;;;;;;5051951;28;20516;-77
2023/04/19 02:15:28;;;;;;;12.10;9.30;;;11.60;99.90;;;;;;5042054;28;20494;-78
2023/04/19 02:17:54;;;;;;;12.40;9.77;;;11.60;1.00;;;;;;5037703;28;20486;-77
2023/04/19 02:20:22;;;;;;;11.87;8.00;;;11.60;99.90;;;;;;5041302;28;20452;-78
2023/04/19 02:22:49;;;;;;;12.27;9.30;;;11.60;99.90;;;;;;5040523;28;20542;-78
2023/04/19 02:25:18;;;;;;;10.30;9.03;;;11.60;1.00;;;;;;5014736;28;20470;-78
2023/04/19 02:27:45;;;;;;;11.10;9.03;;;11.60;43.00;;;;;;4995112;28;20480;-78
2023/04/19 02:30:12;;;;;;;14.57;9.10;;;11.60;99.90;;;;;;5045090;28;20847;-78
2023/04/19 02:32:40;;;;;;;12.63;9.10;;;11.60;99.90;;;;;;5035000;28;20456;-77
2023/04/19 02:35:08;;;;;;;9.83;7.97;;;11.50;99.90;;;;;;5036220;28;20490;-77
2023/04/19 02:37:35;;;;;;;9.27;7.27;;;11.50;1.00;;;;;;5034989;28;20485;-78
2023/04/19 02:40:04;;;;;;;9.93;7.30;;;11.50;1.00;;;;;;5046945;28;21007;-76
2023/04/19 02:42:30;;;;;;;8.00;7.20;;;11.50;1.00;;;;;;5055246;28;20449;-78
2023/04/19 02:44:57;;;;;;;9.00;7.83;;;11.50;1.00;;;;;;5045509;28;20458;-78
2023/04/19 02:47:24;;;;;;;9.30;6.83;;;11.50;99.90;;;;;;5029001;28;20504;-77
2023/04/19 02:49:52;;;;;;;8.77;6.77;;;11.50;99.90;;;;;;5035461;28;20467;-77
2023/04/19 02:52:19;;;;;;;8.17;6.77;;;11.50;1.00;;;;;;5055072;28;20443;-78
2023/04/19 02:54:46;;;;;;;8.80;6.23;;;11.50;99.90;;;;;;5046846;28;20490;-79
2023/04/19 02:57:13;;;;;;;7.70;6.17;;;11.40;1.00;;;;;;5032323;28;20477;-78
2023/04/19 02:59:39;;;;;;;7.83;6.13;;;11.40;99.90;;;;;;5043192;28;20455;-78
2023/04/19 03:02:06;;;;;;;7.70;5.60;;;11.40;1.00;;;;;;5054947;28;20460;-77
2023/04/19 03:04:33;;;;;;;9.10;5.90;;;11.40;99.90;;;;;;5049394;28;20480;-78
2023/04/19 03:07:01;;;;;;;8.00;6.13;;;11.50;1.00;;;;;;5035529;28;20949;-78
2023/04/19 03:09:28;;;;;;;6.33;5.13;;;11.40;99.90;;;;;;5042598;28;20986;-77
2023/04/19 03:11:55;;;;;;;7.17;5.53;;;11.40;1.00;;;;;;5055697;28;20530;-77
2023/04/19 03:14:21;;;;;;;7.70;5.87;;;11.40;1.00;;;;;;5052028;28;20495;-77
2023/04/19 03:16:48;;;;;;;7.30;5.80;;;11.40;1.00;;;;;;5035848;28;20473;-77
2023/04/19 03:19:15;;;;;;;6.63;4.90;;;11.30;1.00;;;;;;5040971;28;20831;-77
2023/04/19 03:21:42;;;;;;;7.80;4.77;;;11.30;1.00;;;;;;5055891;28;20461;-78
2023/04/19 03:24:10;;;;;;;9.10;5.33;;;11.30;99.90;;;;;;5054236;28;20448;-78
2023/04/19 03:26:37;;;;;;;6.50;5.07;;;11.30;99.90;;;;;;5036518;28;20560;-77
2023/04/19 03:29:04;;;;;;;5.40;4.90;;;11.40;99.90;;;;;;5039093;28;20464;-78
2023/04/19 03:31:30;;;;;;;8.97;6.20;;;11.30;99.90;;;;;;5057506;28;20534;-79
2023/04/19 03:33:57;;;;;;;9.43;6.00;;;11.30;99.90;;;;;;5057431;28;20601;-78
2023/04/19 03:36:25;;;;;;;5.57;4.37;;;11.30;1.00;;;;;;5057124;28;20472;-79
2023/04/19 03:38:52;;;;;;;8.13;5.80;;;11.30;1.00;;;;;;5040090;28;20452;-78
2023/04/19 03:41:21;;;;;;;5.53;4.70;;;11.30;99.90;;;;;;5036428;28;20445;-79
2023/04/19 03:43:47;;;;;;;6.20;5.10;;;11.30;11.90;;;;;;5043329;28;20539;-79
2023/04/19 03:46:14;;;;;;;6.73;4.80;;;11.20;1.00;;;;;;5059657;28;20535;-77
2023/04/19 03:48:41;;;;;;;6.30;5.20;;;11.20;99.90;;;;;;5043067;28;20544;-78
2023/04/19 03:51:08;;;;;;;6.07;4.37;;;11.20;99.90;;;;;;5033558;28;20462;-78
2023/04/19 03:53:36;;;;;;;7.73;5.17;;;11.20;38.20;;;;;;5025987;28;20486;-79
2023/04/19 03:56:03;;;;;;;6.60;4.63;;;11.10;71.40;;;;;;5061026;28;20471;-78
2023/04/19 03:58:31;;;;;;;5.23;4.00;;;11.10;1.00;;;;;;5055169;28;20461;-79
2023/04/19 04:00:59;;;;;;;6.60;4.83;;;10.90;99.90;;;;;;5058408;28;20433;-78
2023/04/19 04:03:25;;;;;;;6.13;4.23;;;10.80;1.00;;;;;;5039175;28;20917;-79
2023/04/19 04:05:52;;;;;;;5.83;4.53;;;10.60;1.00;;;;;;5038784;28;20455;-78
2023/04/19 04:08:19;;;;;;;6.87;3.93;;;10.40;1.00;;;;;;5031118;28;20483;-78
2023/04/19 04:10:46;;;;;;;6.40;4.03;;;10.30;1.00;;;;;;5056727;28;20448;-78
2023/04/19 04:13:13;;;;;;;5.83;4.47;;;10.30;1.00;;;;;;5057516;28;20450;-77
2023/04/19 04:15:41;;;;;;;5.37;4.37;;;10.40;1.00;;;;;;5038094;28;20502;-77
2023/04/19 04:18:08;;;;;;;6.80;4.60;;;10.40;1.00;;;;;;5028975;28;20481;-78
2023/04/19 04:20:35;;;;;;;6.50;4.60;;;10.40;1.00;;;;;;5021459;28;20846;-76
2023/04/19 04:23:02;;;;;;;4.60;4.07;;;10.40;1.00;;;;;;5018144;28;20471;-76
2023/04/19 04:25:31;;;;;;;6.10;4.30;;;10.40;1.00;;;;;;5014511;28;20460;-78
2023/04/19 04:27:58;;;;;;;7.50;4.93;;;10.40;1.00;;;;;;5032963;28;20528;-78
2023/04/19 04:30:27;;;;;;;9.93;5.23;;;10.40;1.00;;;;;;5034802;28;20466;-77
2023/04/19 04:32:56;;;;;;;5.30;4.10;;;10.30;1.00;;;;;;5034826;28;20546;-79
2023/04/19 04:35:24;;;;;;;6.20;4.40;;;10.30;99.90;;;;;;5035191;28;20844;-79
2023/04/19 04:37:52;;;;;;;6.90;4.40;;;10.20;1.00;;;;;;5052191;22;20497;-81
2023/04/19 04:40:20;;;;;;;6.33;4.80;;;10.20;99.90;;;;;;5047858;28;20844;-82
2023/04/19 04:42:47;;;;;;;5.40;4.47;;;10.20;99.90;;;;;;5043152;28;20450;-80
2023/04/19 04:45:17;;;;;;;6.57;4.30;;;10.20;99.90;;;;;;5051352;28;20491;-79
2023/04/19 04:47:45;;;;;;;6.97;4.77;;;10.20;99.90;;;;;;5045121;28;21066;-80
2023/04/19 04:50:13;;;;;;;5.70;4.60;;;10.10;99.90;;;;;;5050131;28;20539;-80
2023/04/19 04:52:39;;;;;;;6.60;4.50;;;10.00;99.90;;;;;;5063621;28;20852;-81
2023/04/19 04:55:07;;;;;;;6.03;4.40;;;10.00;99.90;;;;;;5057811;28;20558;-81
2023/04/19 04:57:34;;;;;;;7.23;5.13;;;10.00;1.00;;;;;;5041856;28;20484;-79
2023/04/19 05:00:01;;;;;;;6.30;4.83;;;9.90;1.00;;;;;;5047154;28;20486;-80
2023/04/19 05:02:28;;;;;;;6.20;5.10;;;9.80;1.00;;;;;;5063560;28;20449;-80
2023/04/19 05:04:55;;;;;;;8.80;4.90;;;9.90;1.00;;;;;;5061700;28;20530;-80
2023/04/19 05:07:23;;;;;;;11.67;5.60;;;9.90;1.00;;;;;;5044937;28;20914;-81
2023/04/19 05:09:50;;;;;;;5.50;4.53;;;9.90;1.00;;;;;;5046954;28;20486;-80
2023/04/19 05:12:16;;;;;;;8.33;5.70;;;9.90;1.00;;;;;;5063752;28;20863;-80
2023/04/19 05:14:43;;;;;;;7.57;5.77;;;9.90;1.00;;;;;;5064945;28;20493;-81
2023/04/19 05:17:10;;;;;;;7.17;5.03;;;9.80;99.90;;;;;;5043272;28;20562;-82
2023/04/19 05:19:37;;;;;;;7.30;5.90;;;9.80;29.00;;;;;;5045285;28;20532;-80
2023/04/19 05:22:04;;;;;;;11.63;5.57;;;9.70;99.20;;;;;;5043590;28;20464;-79
2023/04/19 05:24:32;;;;;;;8.50;5.70;;;9.70;99.90;;;;;;5023920;28;20446;-80
2023/04/19 05:26:58;;;;;;;6.60;5.50;;;9.60;99.90;;;;;;5058066;28;20849;-80
2023/04/19 05:29:25;;;;;;;7.53;5.60;;;9.50;99.90;;;;;;5040565;28;20533;-79
2023/04/19 05:31:52;;;;;;;8.17;5.23;;;9.60;1.00;;;;;;5041397;28;20446;-81
2023/04/19 05:34:19;;;;;;;9.00;5.30;;;9.60;1.00;;;;;;5033177;28;20582;-78
2023/04/19 05:36:46;;;;;;;9.90;6.07;;;9.60;1.00;;;;;;5031867;28;20463;-80
2023/04/19 05:39:13;;;;;;;7.93;6.20;;;9.70;1.00;;;;;;5033931;28;20943;-80
2023/04/19 05:41:41;;;;;;;7.03;5.43;;;9.80;99.90;;;;;;5038823;28;20464;-81
2023/04/19 05:44:08;;;;;;;8.43;6.20;;;9.80;99.90;;;;;;5042404;28;20513;-81
2023/04/19 05:46:35;;;;;;;6.97;5.53;;;9.90;1.00;;;;;;5036762;28;20550;-79
2023/04/19 05:49:02;;;;;;;9.80;5.10;;;9.90;1.00;;;;;;5043598;28;20537;-80
2023/04/19 05:51:30;;;;;;;7.57;5.00;;;10.00;1.00;;;;;;5026181;28;20458;-82
2023/04/19 05:53:57;;;;;;;6.90;4.47;;;10.10;99.90;;;;;;5041102;28;20483;-81
2023/04/19 05:56:24;;;;;;;8.73;6.00;;;10.20;99.90;;;;;;5033119;28;20463;-83
2023/04/19 05:58:54;;;;;;;8.43;5.10;;;10.20;37.90;;;;;;5032664;28;20544;-81
2023/04/19 06:01:21;;;;;;;9.63;4.27;;;10.30;1.00;;;;;;5037196;28;20472;-82
2023/04/19 06:03:51;;;;;;;6.70;4.77;;;10.50;1.00;;;;;;5037827;28;20823;-82
2023/04/19 06:06:18;;;;;;;6.00;4.07;;;10.70;1.00;;;;;;5039393;28;20492;-82
2023/04/19 06:08:45;;;;;;;4.90;3.90;;;10.70;1.00;;;;;;5037378;28;20919;-82
2023/04/19 06:11:12;;;;;;;4.90;3.83;;;10.70;1.00;;;;;;5045284;28;20521;-83
2023/04/19 06:13:39;;;;;;;8.33;4.20;;;10.70;99.90;;;;;;5034845;28;20510;-82
2023/04/19 06:16:08;;;;;;;9.00;4.60;;;10.60;99.90;;;;;;5034470;28;20598;-82
2023/04/19 06:18:35;;;;;;;6.10;3.93;;;10.50;99.90;;;;;;5034752;28;20482;-83
2023/04/19 06:21:02;;;;;;;8.53;4.20;;;10.30;99.90;;;;;;5034168;28;20465;-82
2023/04/19 06:23:28;;;;;;;6.30;4.33;;;10.10;99.90;;;;;;5029604;28;20452;-83
2023/04/19 06:25:55;;;;;;;6.03;4.17;;;10.10;99.90;;;;;;5041332;28;20454;-83
2023/04/19 06:28:22;;;;;;;8.57;4.20;;;10.10;99.90;;;;;;5039299;28;20578;-81
2023/04/19 06:30:49;;;;;;;8.63;4.30;;;9.90;99.90;;;;;;5041529;28;20459;-81
2023/04/19 06:33:17;;;;;;;5.93;3.53;;;9.90;99.90;;;;;;5036514;28;21059;-83
2023/04/19 06:35:44;;;;;;;6.60;4.37;;;9.90;99.90;;;;;;5051498;28;20478;-83
2023/04/19 06:38:10;;;;;;;5.57;3.50;;;9.80;99.90;;;;;;5046840;28;20574;-82
2023/04/19 06:40:37;;;;;;;4.70;3.23;;;9.80;99.90;;;;;;5033408;28;20974;-81
2023/04/19 06:43:04;;;;;;;6.30;3.77;;;9.80;99.90;;;;;;5035791;28;20469;-83
2023/04/19 06:45:31;;;;;;;5.50;3.20;;;9.80;99.90;;;;;;5035222;28;20457;-82
2023/04/19 06:47:58;;;;;;;5.37;3.40;;;9.70;99.90;;;;;;5037687;28;20476;-82
2023/04/19 06:50:27;;;;;;;6.20;3.30;;;9.60;99.90;;;;;;5035873;28;20546;-82
2023/04/19 06:52:54;;;;;;;5.10;3.20;;;9.60;99.90;;;;;;5038211;28;20454;-83
2023/04/19 06:55:21;;;;;;;8.90;3.23;;;9.60;99.90;;;;;;5043226;28;20491;-83
2023/04/19 06:57:48;;;;;;;8.30;3.60;;;9.70;99.90;;;;;;5033041;28;20483;-82
2023/04/19 07:00:15;;;;;;;5.10;3.30;;;9.70;99.90;;;;;;5034307;28;20545;-83
2023/04/19 07:02:42;;;;;;;5.03;3.10;;;9.80;99.90;;;;;;5037078;28;20529;-83
2023/04/19 07:05:11;;;;;;;4.40;3.10;;;9.80;99.90;;;;;;5040705;28;20463;-84
2023/04/19 07:07:40;;;;;;;13.00;3.77;;;9.80;99.90;;;;;;5028063;28;20541;-83
2023/04/19 07:10:08;;;;;;;6.73;3.67;;;9.90;99.90;;;;;;5026986;28;20530;-83
2023/04/19 07:12:36;;;;;;;6.03;3.23;;;10.00;99.90;;;;;;5039321;28;20456;-83
2023/04/19 07:15:04;;;;;;;4.57;3.03;;;10.00;99.90;;;;;;5048730;28;20493;-82
2023/04/19 07:17:30;;;;;;;4.30;2.73;;;10.10;99.90;;;;;;5043596;28;20499;-83
2023/04/19 07:19:57;;;;;;;8.53;4.00;;;10.20;99.90;;;;;;5039339;28;20455;-84
2023/04/19 07:22:26;;;;;;;5.60;2.77;;;10.20;99.90;;;;;;5037133;28;20459;-81
2023/04/19 07:24:54;;;;;;;5.70;3.03;;;10.30;99.90;;;;;;5049426;28;20454;-83
2023/04/19 07:27:21;;;;;;;5.80;3.47;;;10.30;99.90;;;;;;5038697;28;20509;-84
2023/04/19 07:29:48;;;;;;;6.07;3.57;;;10.40;99.90;;;;;;5041630;28;20459;-84
2023/04/19 07:32:15;;;;;;;9.63;3.43;;;10.50;99.90;;;;;;5039889;28;20463;-83
2023/04/19 07:34:42;;;;;;;10.03;2.97;;;10.60;99.90;;;;;;5040643;28;20478;-84
2023/04/19 07:37:09;;;;;;;6.13;2.80;;;10.70;99.90;;;;;;5026896;28;20491;-84
2023/04/19 07:39:36;;;;;;;6.60;2.93;;;10.90;99.90;;;;;;5037622;28;20451;-84
2023/04/19 07:42:04;;;;;;;7.63;3.17;;;11.00;99.90;;;;;;5049264;28;20525;-83
2023/04/19 07:44:36;;;;;;;6.47;3.40;;;11.30;99.90;;;;;;5046638;28;20961;-82
2023/04/19 07:47:04;;;;;;;4.23;2.97;;;11.50;99.90;;;;;;5047601;28;20479;-84
2023/04/19 07:49:37;;;;;;;5.07;3.10;;;11.50;99.90;;;;;;5037162;28;20452;-80
2023/04/19 07:52:09;;;;;;;4.27;3.00;;;11.80;99.90;;;;;;5037001;28;20467;-83
2023/04/19 07:54:38;;;;;;;4.83;3.13;;;11.60;99.90;;;;;;5032288;28;20476;-83
2023/04/19 07:57:06;;;;;;;5.93;3.47;;;11.60;99.90;;;;;;5036294;28;20495;-85
2023/04/19 07:59:33;;;;;;;7.87;2.87;;;11.60;99.90;;;;;;5035104;28;20473;-83
2023/04/19 08:02:00;;;;;;;4.63;3.30;;;11.40;99.90;;;;;;5039396;28;20453;-84
2023/04/19 08:04:29;;;;;;;5.57;2.97;;;11.30;99.90;;;;;;5040410;28;20485;-84
2023/04/19 08:09:43;;;;;;;5.93;3.00;;;11.80;99.90;;;;;;5039814;28;20472;-84
2023/04/19 08:15:13;;;;;;;5.87;2.60;;;11.90;99.90;;;;;;5030000;28;20473;-81
2023/04/19 08:18:06;;;;;;;7.73;3.00;;;12.70;99.90;;;;;;5040206;28;20567;-81
2023/04/19 08:20:59;;;;;;;3.37;2.27;;;11.90;99.90;;;;;;5046069;28;20463;-80
2023/04/19 08:23:26;;;;;;;6.50;3.40;;;12.20;99.90;;;;;;5033188;28;20817;-84
2023/04/19 08:25:53;;;;;;;5.90;3.03;;;12.50;99.90;;;;;;5041244;28;20517;-84
2023/04/19 08:28:21;;;;;;;4.90;3.00;;;13.00;99.90;;;;;;5037379;28;20552;-83
2023/04/19 08:30:49;;;;;;;5.70;2.83;;;14.00;99.90;;;;;;5038314;28;20459;-80
2023/04/19 08:33:15;;;;;;;4.43;2.73;;;14.90;99.90;;;;;;5038135;28;20457;-85
2023/04/19 08:35:44;;;;;;;5.03;3.27;;;15.70;1.00;;;;;;5037551;28;20996;-83
2023/04/19 08:38:11;;;;;;;9.43;3.07;;;16.70;99.90;;;;;;5034360;28;20481;-83
2023/04/19 08:40:45;;;;;;;4.77;2.70;;;17.90;99.90;;;;;;5034240;28;20491;-81
2023/04/19 08:43:12;;;;;;;6.97;2.87;;;17.80;99.90;;;;;;5041666;28;20541;-83
2023/04/19 08:45:40;;;;;;;5.80;3.93;;;17.60;99.90;;;;;;5037119;28;20449;-85
2023/04/19 08:48:10;;;;;;;4.00;2.33;;;18.00;99.90;;;;;;5035657;28;20572;-85
2023/04/19 08:50:40;;;;;;;3.10;2.37;;;18.30;99.90;;;;;;5033328;28;20486;-82
2023/04/19 08:53:08;;;;;;;3.90;2.33;;;18.60;99.90;;;;;;5052791;28;20459;-84
2023/04/19 08:55:36;;;;;;;3.50;2.17;;;19.60;99.90;;;;;;5041525;28;20921;-84
2023/04/19 08:58:04;;;;;;;3.57;2.20;;;19.30;99.90;;;;;;5035489;28;20486;-86
2023/04/19 09:00:32;;;;;;;2.87;2.10;;;19.40;1.00;;;;;;5036340;28;20839;-83
2023/04/19 09:03:00;;;;;;;7.57;2.20;;;19.60;99.90;;;;;;5039859;28;20453;-84
2023/04/19 09:05:27;;;;;;;5.00;2.20;;;19.90;99.90;;;;;;5037997;28;20454;-85
2023/04/19 09:07:54;;;;;;;4.03;1.93;;;20.20;99.90;;;;;;5036241;28;21095;-86
2023/04/19 09:10:21;;;;;;;3.53;2.00;;;21.00;99.90;;;;;;5039189;28;20555;-85
2023/04/19 09:13:05;;;;;;;3.80;2.47;;;21.50;99.90;;;;;;5034583;28;20965;-82
2023/04/19 09:15:38;;;;;;;3.03;1.90;;;20.90;99.90;;;;;;5038250;28;20494;-85
2023/04/19 09:18:08;;;;;;;2.93;1.60;;;20.30;99.90;;;;;;5043051;28;20475;-87
2023/04/19 09:20:39;;;;;;;2.80;1.57;;;20.70;99.90;;;;;;5033874;28;20458;-83
2023/04/19 09:23:07;;;;;;;2.47;1.47;;;20.80;99.90;;;;;;5033815;28;20457;-83
2023/04/19 09:25:35;;;;;;;2.50;1.60;;;20.60;99.90;;;;;;5041481;28;20451;-85
2023/04/19 09:28:11;;;;;;;2.93;1.70;;;22.00;99.90;;;;;;5047437;28;20472;-81
2023/04/19 09:30:39;;;;;;;3.10;1.67;;;22.00;99.90;;;;;;5047283;28;20451;-82
2023/04/19 09:33:08;;;;;;;3.23;1.70;;;21.20;99.90;;;;;;5056871;28;20451;-85
2023/04/19 09:35:42;;;;;;;2.70;1.80;;;20.90;99.90;;;;;;5048882;28;20514;-84
2023/04/19 09:38:09;;;;;;;3.73;1.80;;;21.60;99.90;;;;;;5055360;28;20487;-85
2023/04/19 09:40:37;;;;;;;2.90;1.80;;;21.10;99.90;;;;;;5020089;28;20544;-83
2023/04/19 09:43:04;;;;;;;2.80;1.60;;;21.50;99.90;;;;;;5016846;28;20461;-85
2023/04/19 09:45:40;;;;;;;3.37;2.10;;;22.50;99.90;;;;;;5052209;28;20963;-84
2023/04/19 09:48:09;;;;;;;2.57;1.47;;;22.20;99.90;;;;;;5057022;28;20502;-84
2023/04/19 09:50:50;;;;;;;4.73;2.60;;;22.50;99.90;;;;;;5043930;28;20453;-84
2023/04/19 09:53:17;;;;;;;6.07;1.80;;;21.90;99.90;;;;;;5042337;28;20440;-84
2023/04/19 09:55:46;;;;;;;2.73;1.80;;;21.70;99.90;;;;;;5043902;28;20520;-84
2023/04/19 09:58:13;;;;;;;3.80;2.00;;;22.70;99.90;;;;;;5023158;28;20477;-84
2023/04/19 10:00:41;;;;;;;2.77;2.00;;;24.10;99.90;;;;;;5035361;28;20540;-85
2023/04/19 10:03:10;;;;;;;3.60;2.30;;;24.40;99.90;;;;;;5041164;28;20563;-84
2023/04/19 10:05:41;;;;;;;4.00;2.00;;;24.50;99.90;;;;;;5052219;28;20459;-84
2023/04/19 10:08:08;;;;;;;3.10;2.17;;;24.90;99.90;;;;;;5055962;28;20475;-83
2023/04/19 10:10:35;;;;;;;4.50;2.20;;;24.30;99.90;;;;;;5040356;28;20547;-82
2023/04/19 10:13:04;;;;;;;3.47;2.63;;;24.70;99.90;;;;;;5022299;28;20454;-85
2023/04/19 10:15:32;;;;;;;3.33;2.53;;;24.20;99.90;;;;;;5018955;28;20456;-84
2023/04/19 10:17:59;;;;;;;4.23;3.00;;;24.30;99.90;;;;;;5015542;28;20473;-84
2023/04/19 10:20:49;;;;;;;4.00;2.60;;;23.50;99.90;;;;;;5034131;28;20452;-83
2023/04/19 10:23:17;;;;;;;4.00;2.10;;;24.70;99.90;;;;;;5029999;28;20547;-84
2023/04/19 10:25:46;;;;;;;4.67;2.80;;;24.10;99.90;;;;;;5055247;28;20847;-84
2023/04/19 10:28:15;;;;;;;4.90;2.83;;;23.60;99.90;;;;;;5041396;28;20481;-83
2023/04/19 10:30:54;;;;;;;3.40;2.43;;;24.30;99.90;;;;;;5015383;28;20489;-85
2023/04/19 10:33:26;;;;;;;4.33;2.40;;;24.40;99.90;;;;;;5036516;28;20468;-84
2023/04/19 10:35:56;;;;;;;3.07;2.00;;;24.60;99.90;;;;;;5038266;28;20527;-85
2023/04/19 10:38:36;;;;;;;2.77;2.40;;;25.30;99.90;;;;;;5049740;22;20507;-80
2023/04/19 10:41:04;;;;;;;3.57;2.17;;;24.60;99.90;;;;;;5036300;28;20511;-80
2023/04/19 10:43:32;;;;;;;4.20;1.93;;;24.80;99.90;;;;;;5035751;28;20948;-80
2023/04/19 10:46:01;;;;;;;6.07;2.20;;;25.70;99.90;;;;;;5049038;28;20836;-79
2023/04/19 10:48:40;;;;;;;2.50;2.00;;;26.00;99.90;;;;;;5044971;28;20490;-81
2023/04/19 10:51:14;;;;;;;2.70;1.80;;;26.00;99.90;;;;;;5043977;28;20498;-80
2023/04/19 10:53:49;;;;;;;3.47;2.00;;;26.40;99.90;;;;;;5046290;28;20427;-81
2023/04/19 10:56:18;;;;;;;3.13;2.37;;;27.90;1.00;;;;;;5050678;28;20475;-81
2023/04/19 10:59:20;;;;;;;4.40;3.00;;;27.70;99.90;;;;;;5041245;28;20584;-81
2023/04/19 11:01:51;;;;;;;4.50;2.70;;;28.10;99.90;;;;;;5042112;28;20522;-81
2023/04/19 11:04:20;;;;;;;3.20;2.27;;;27.50;99.90;;;;;;5057273;28;20447;-80
2023/04/19 11:07:05;;;;;;;7.43;2.50;;;26.70;99.90;;;;;;5044314;28;20792;-81
2023/04/19 11:09:33;;;;;;;3.63;2.57;;;26.70;1.00;;;;;;5038181;28;20477;-81
2023/04/19 11:12:02;;;;;;;3.73;2.40;;;28.80;1.00;;;;;;5038675;28;20457;-82
2023/04/19 11:14:34;;;;;;;4.43;2.20;;;27.70;99.90;;;;;;5040350;28;20480;-82
2023/04/19 11:17:04;;;;;;;3.10;2.50;;;27.70;1.00;;;;;;5046987;28;20486;-79
2023/04/19 11:19:30;;;;;;;4.23;2.53;;;28.90;99.90;;;;;;5049672;28;20555;-82
2023/04/19 11:21:59;;;;;;;4.77;2.63;;;29.00;99.90;;;;;;5045632;28;20978;-82
2023/04/19 11:24:27;;;;;;;4.20;3.40;;;29.70;99.90;;;;;;5040311;28;20472;-83
2023/04/19 11:26:57;;;;;;;4.50;2.33;;;28.90;99.90;;;;;;5039451;28;20456;-82
2023/04/19 11:29:24;;;;;;;3.60;2.50;;;28.50;99.90;;;;;;5039951;28;20892;-80
2023/04/19 11:31:51;;;;;;;3.30;2.80;;;28.10;1.00;;;;;;5036807;28;20453;-81
2023/04/19 11:34:22;;;;;;;5.87;2.17;;;27.50;1.00;;;;;;5039900;28;20453;-80
2023/04/19 11:36:50;;;;;;;4.60;2.53;;;27.70;99.90;;;;;;5037949;28;21025;-81
2023/04/19 11:39:17;;;;;;;4.30;2.57;;;28.30;99.90;;;;;;5041260;28;21004;-82
2023/04/19 11:41:46;;;;;;;4.20;2.90;;;28.20;99.90;;;;;;5041051;28;20452;-80
2023/04/19 11:44:14;;;;;;;3.40;2.77;;;27.80;99.90;;;;;;5039746;28;20810;-80
2023/04/19 11:46:41;;;;;;;4.37;2.97;;;28.00;1.00;;;;;;5039516;28;20452;-81
2023/04/19 11:49:08;;;;;;;3.70;2.60;;;29.20;99.90;;;;;;5037520;28;20560;-80
2023/04/19 11:51:35;;;;;;;5.60;2.80;;;29.50;99.90;;;;;;5038867;28;20840;-80
2023/04/19 11:54:01;;;;;;;4.23;2.60;;;30.80;99.90;;;;;;5036747;28;20459;-80
2023/04/19 11:56:28;;;;;;;3.57;2.90;;;29.80;99.90;;;;;;5035383;28;20486;-82
2023/04/19 11:58:58;;;;;;;8.87;3.43;;;29.10;1.00;;;;;;5033499;28;20480;-82
2023/04/19 12:01:25;;;;;;;4.97;3.30;;;28.90;1.00;;;;;;5036640;28;20488;-82
2023/04/19 12:03:53;;;;;;;3.20;2.57;;;27.70;99.90;;;;;;5037266;28;20808;-83
2023/04/19 12:06:24;;;;;;;4.07;2.57;;;27.70;99.90;;;;;;5038486;28;20468;-82
2023/04/19 12:08:52;;;;;;;5.33;3.00;;;29.00;99.90;;;;;;5039185;28;20473;-82
2023/04/19 12:11:22;;;;;;;3.83;2.97;;;30.30;99.90;;;;;;5040524;28;20484;-83
2023/04/19 12:13:49;;;;;;;4.20;2.43;;;29.50;99.90;;;;;;5041586;28;20513;-82
2023/04/19 12:16:28;;;;;;;5.10;3.20;;;31.00;1.00;;;;;;5041607;28;20480;-82
2023/04/19 12:18:54;;;;;;;3.90;3.00;;;30.50;99.90;;;;;;5046943;28;20501;-83
2023/04/19 12:21:26;;;;;;;5.30;3.80;;;31.40;1.00;;;;;;5042381;28;20494;-83
2023/04/19 12:23:55;;;;;;;3.63;2.97;;;31.00;99.90;;;;;;5042482;28;21044;-83
2023/04/19 12:26:22;;;;;;;4.63;2.63;;;31.30;1.00;;;;;;5042424;28;20448;-83
2023/04/19 12:28:49;;;;;;;4.90;3.27;;;31.00;1.00;;;;;;5042300;28;20475;-83
2023/04/19 12:31:17;;;;;;;4.77;2.80;;;30.90;99.90;;;;;;5042601;28;20516;-84
2023/04/19 12:33:44;;;;;;;4.27;3.20;;;31.10;1.00;;;;;;5042408;28;20448;-83
2023/04/19 12:36:10;;;;;;;3.53;2.57;;;30.10;1.00;;;;;;5041245;28;20448;-84
2023/04/19 12:38:37;;;;;;;3.20;2.77;;;29.90;99.90;;;;;;5041965;28;21004;-84
2023/04/19 12:41:04;;;;;;;6.37;3.73;;;30.70;99.90;;;;;;5041972;28;20544;-84
2023/04/19 12:43:31;;;;;;;3.47;3.00;;;29.80;1.00;;;;;;5043231;28;20452;-83
2023/04/19 12:45:58;;;;;;;4.53;3.10;;;29.00;99.90;;;;;;5042390;28;20480;-83
2023/04/19 12:48:26;;;;;;;5.07;3.27;;;30.20;99.90;;;;;;5043246;28;20579;-83
2023/04/19 12:50:54;;;;;;;3.87;2.70;;;29.80;99.90;;;;;;5042550;28;20455;-83
2023/04/19 12:53:21;;;;;;;5.80;3.37;;;30.10;1.00;;;;;;5042368;28;20480;-82
2023/04/19 12:55:48;;;;;;;4.73;2.90;;;28.50;99.90;;;;;;5041702;28;20456;-83
2023/04/19 12:58:15;;;;;;;3.93;2.80;;;27.90;99.90;;;;;;5040958;28;20493;-83